createdAt,value
2018-04-17T00:00:24.778Z,53.27
2018-04-17T00:05:41.081Z,58.63
2018-04-17T00:08:09.751Z,59.35
2018-04-17T00:10:38.418Z,58.08
2018-04-17T00:13:07.090Z,56.42
2018-04-17T00:15:35.736Z,53.13
2018-04-17T00:18:04.417Z,50.60
2018-04-17T00:20:33.061Z,48.03
2018-04-17T00:23:01.730Z,49.77
2018-04-17T00:25:30.401Z,46.60
2018-04-17T00:27:59.634Z,50.97
2018-04-17T00:30:28.287Z,51.13
2018-04-17T00:32:56.977Z,51.97
2018-04-17T00:35:25.624Z,57.95
2018-04-17T00:37:54.299Z,52.17
2018-04-17T00:40:22.953Z,61.43
2018-04-17T00:42:51.631Z,57.47
2018-04-17T00:45:22.336Z,53.67
2018-04-17T00:47:50.998Z,53.47
2018-04-17T00:50:19.657Z,61.27
2018-04-17T00:52:48.349Z,61.63
2018-04-17T00:55:16.990Z,59.67
2018-04-17T00:57:47.159Z,62.07
2018-04-17T01:00:15.832Z,66.17
2018-04-17T01:02:44.824Z,67.10
2018-04-17T01:05:13.493Z,64.43
2018-04-17T01:07:42.151Z,69.90
2018-04-17T01:10:10.827Z,77.13
2018-04-17T01:12:39.477Z,75.37
2018-04-17T01:15:08.154Z,71.37
2018-04-17T01:17:36.783Z,65.83
2018-04-17T01:20:05.457Z,72.47
2018-04-17T01:22:34.114Z,65.50
2018-04-17T01:25:02.791Z,65.78
2018-04-17T01:27:31.789Z,78.47
2018-04-17T01:30:00.473Z,76.00
2018-04-17T01:32:29.139Z,72.27
2018-04-17T01:34:57.815Z,83.97
2018-04-17T01:37:26.463Z,89.17
2018-04-17T01:39:57.161Z,84.53
2018-04-17T01:42:25.824Z,91.27
2018-04-17T01:44:54.532Z,95.00
2018-04-17T01:47:23.771Z,99.43
2018-04-17T01:49:52.423Z,97.80
2018-04-17T01:52:21.129Z,105.07
2018-04-17T01:54:49.778Z,97.87
2018-04-17T01:57:18.467Z,116.60
2018-04-17T01:59:47.139Z,123.13
2018-04-17T02:02:15.831Z,107.70
2018-04-17T02:04:44.489Z,103.97
2018-04-17T02:07:13.180Z,121.17
2018-04-17T02:09:41.832Z,129.13
2018-04-17T02:12:10.908Z,117.60
2018-04-17T02:14:41.330Z,117.50
2018-04-17T02:17:15.219Z,117.73
2018-04-17T02:19:44.125Z,121.77
2018-04-17T02:22:14.054Z,125.10
2018-04-17T02:24:42.708Z,127.90
2018-04-17T02:27:11.719Z,112.03
2018-04-17T02:29:40.375Z,117.83
2018-04-17T02:32:09.056Z,120.07
2018-04-17T02:34:37.708Z,130.47
2018-04-17T02:37:06.402Z,133.53
2018-04-17T02:39:35.064Z,124.43
2018-04-17T02:42:03.713Z,110.57
2018-04-17T02:44:32.409Z,109.50
2018-04-17T02:47:01.073Z,109.60
2018-04-17T02:49:30.209Z,114.90
2018-04-17T02:51:58.871Z,113.33
2018-04-17T02:54:27.554Z,111.07
2018-04-17T02:56:56.203Z,106.00
2018-04-17T02:59:25.108Z,107.40
2018-04-17T03:01:54.021Z,108.30
2018-04-17T03:04:24.345Z,106.63
2018-04-17T03:06:52.992Z,121.83
2018-04-17T03:09:21.668Z,109.97
2018-04-17T03:11:50.324Z,110.43
2018-04-17T03:14:19.014Z,108.78
2018-04-17T03:16:47.663Z,115.87
2018-04-17T03:19:16.339Z,135.23
2018-04-17T03:21:44.997Z,133.03
2018-04-17T03:24:13.735Z,110.63
2018-04-17T03:26:42.380Z,140.80
2018-04-17T03:29:11.087Z,98.77
2018-04-17T03:31:39.773Z,110.10
2018-04-17T03:34:08.493Z,126.03
2018-04-17T03:36:37.161Z,112.17
2018-04-17T03:39:08.610Z,126.07
2018-04-17T03:41:37.285Z,130.43
2018-04-17T03:44:05.978Z,123.43
2018-04-17T03:46:34.669Z,127.40
2018-04-17T03:49:03.366Z,117.23
2018-04-17T03:51:32.077Z,108.13
2018-04-17T03:54:00.736Z,110.60
2018-04-17T03:56:29.425Z,108.90
2018-04-17T03:58:58.079Z,114.33
2018-04-17T04:01:26.756Z,116.80
2018-04-17T04:03:55.403Z,100.73
2018-04-17T04:06:24.096Z,111.50
2018-04-17T04:08:52.756Z,109.10
2018-04-17T04:11:21.441Z,92.40
2018-04-17T04:13:50.089Z,93.57
2018-04-17T04:16:55.738Z,105.07
2018-04-17T04:20:02.992Z,88.20
2018-04-17T04:23:08.521Z,86.33
2018-04-17T04:25:45.927Z,84.87
2018-04-17T04:28:14.625Z,92.03
2018-04-17T04:30:43.458Z,85.77
2018-04-17T04:33:12.161Z,86.37
2018-04-17T04:35:40.810Z,78.63
2018-04-17T04:38:09.461Z,83.93
2018-04-17T04:40:38.209Z,71.67
2018-04-17T04:43:06.871Z,73.40
2018-04-17T04:45:35.550Z,77.70
2018-04-17T04:48:04.192Z,77.60
2018-04-17T04:50:33.146Z,74.60
2018-04-17T04:53:01.785Z,66.10
2018-04-17T04:55:30.457Z,70.93
2018-04-17T04:57:59.106Z,73.80
2018-04-17T05:00:27.790Z,68.43
2018-04-17T05:02:56.426Z,73.27
2018-04-17T05:05:25.099Z,70.83
2018-04-17T05:07:53.755Z,67.07
2018-04-17T05:10:22.489Z,62.40
2018-04-17T05:12:51.160Z,64.77
2018-04-17T05:15:19.815Z,66.62
2018-04-17T05:17:48.458Z,61.13
2018-04-17T05:20:17.144Z,63.77
2018-04-17T05:22:45.791Z,58.23
2018-04-17T05:25:14.454Z,59.15
2018-04-17T05:27:43.131Z,53.17
2018-04-17T05:30:11.772Z,59.07
2018-04-17T05:32:40.438Z,59.87
2018-04-17T05:35:09.075Z,57.00
2018-04-17T05:37:37.764Z,53.70
2018-04-17T05:40:06.416Z,46.20
2018-04-17T05:42:35.069Z,56.17
2018-04-17T05:45:03.709Z,53.37
2018-04-17T05:47:32.343Z,54.67
2018-04-17T05:50:01.088Z,51.53
2018-04-17T05:52:29.771Z,50.43
2018-04-17T05:54:58.365Z,49.93
2018-04-17T05:57:26.998Z,55.58
2018-04-17T05:59:55.778Z,49.70
2018-04-17T06:02:24.417Z,49.47
2018-04-17T06:04:53.017Z,51.73
2018-04-17T06:07:21.645Z,49.07
2018-04-17T06:09:50.254Z,43.10
2018-04-17T06:12:18.850Z,48.20
2018-04-17T06:14:47.497Z,45.92
2018-04-17T06:17:16.112Z,47.57
2018-04-17T06:19:44.760Z,46.83
2018-04-17T06:22:13.368Z,51.13
2018-04-17T06:24:42.013Z,49.10
2018-04-17T06:27:10.614Z,43.80
2018-04-17T06:29:39.253Z,44.87
2018-04-17T06:32:07.861Z,42.57
2018-04-17T06:34:36.500Z,36.57
2018-04-17T06:37:05.105Z,41.17
2018-04-17T06:39:33.742Z,38.07
2018-04-17T06:42:02.369Z,43.77
2018-04-17T06:44:30.983Z,39.90
2018-04-17T06:46:59.588Z,42.28
2018-04-17T06:49:28.222Z,37.00
2018-04-17T06:51:56.828Z,40.10
2018-04-17T06:54:25.476Z,40.03
2018-04-17T06:56:54.074Z,40.70
2018-04-17T06:59:24.964Z,38.53
2018-04-17T07:01:53.579Z,37.77
2018-04-17T07:04:22.190Z,39.90
2018-04-17T07:06:50.843Z,37.43
2018-04-17T07:09:19.450Z,38.53
2018-04-17T07:11:48.089Z,38.50
2018-04-17T07:14:16.689Z,37.37
2018-04-17T07:16:45.327Z,35.50
2018-04-17T07:19:13.934Z,37.00
2018-04-17T07:21:42.575Z,35.70
2018-04-17T07:24:11.192Z,37.23
2018-04-17T07:26:39.834Z,34.90
2018-04-17T07:29:08.459Z,33.83
2018-04-17T07:31:37.105Z,33.27
2018-04-17T07:34:05.716Z,32.43
2018-04-17T07:36:34.351Z,33.20
2018-04-17T07:39:02.960Z,33.27
2018-04-17T07:41:31.596Z,32.10
2018-04-17T07:44:00.212Z,30.37
2018-04-17T07:46:28.877Z,28.47
2018-04-17T07:49:06.350Z,26.98
2018-04-17T07:51:35.053Z,28.90
2018-04-17T07:54:03.713Z,27.77
2018-04-17T07:56:32.335Z,30.70
2018-04-17T07:59:00.968Z,29.55
2018-04-17T08:01:29.614Z,30.67
2018-04-17T08:03:58.268Z,27.67
2018-04-17T08:06:26.917Z,27.73
2018-04-17T08:08:55.563Z,27.42
2018-04-17T08:11:24.195Z,29.87
2018-04-17T08:13:52.880Z,29.15
2018-04-17T08:16:21.521Z,28.62
2018-04-17T08:18:50.197Z,25.35
2018-04-17T08:21:18.818Z,25.83
2018-04-17T08:23:47.466Z,24.02
2018-04-17T08:26:16.102Z,22.50
2018-04-17T08:28:44.747Z,20.73
2018-04-17T08:31:13.383Z,20.80
2018-04-17T08:33:42.019Z,22.05
2018-04-17T08:36:10.652Z,21.92
2018-04-17T08:38:39.294Z,24.52
2018-04-17T08:41:07.935Z,23.17
2018-04-17T08:43:36.530Z,17.95
2018-04-17T08:46:05.188Z,20.20
2018-04-17T08:48:33.811Z,18.85
2018-04-17T08:51:02.450Z,20.05
2018-04-17T08:53:31.081Z,20.15
2018-04-17T08:55:59.716Z,18.40
2018-04-17T08:58:28.327Z,18.25
2018-04-17T09:00:56.977Z,20.88
2018-04-17T09:03:25.583Z,16.12
2018-04-17T09:05:54.219Z,21.52
2018-04-17T09:08:22.825Z,17.92
2018-04-17T09:10:51.471Z,18.23
2018-04-17T09:13:20.098Z,18.02
2018-04-17T09:15:48.730Z,22.98
2018-04-17T09:18:17.366Z,20.20
2018-04-17T09:20:46.003Z,19.73
2018-04-17T09:23:14.611Z,19.48
2018-04-17T09:25:43.262Z,18.05
2018-04-17T09:28:12.820Z,22.05
2018-04-17T09:30:41.435Z,22.37
2018-04-17T09:33:10.128Z,23.62
2018-04-17T09:35:38.908Z,18.60
2018-04-17T09:38:07.547Z,22.08
2018-04-17T09:40:36.181Z,19.80
2018-04-17T09:43:04.885Z,20.85
2018-04-17T09:45:33.427Z,20.42
2018-04-17T09:48:02.063Z,18.70
2018-04-17T09:50:30.922Z,18.80
2018-04-17T09:52:59.511Z,17.87
2018-04-17T09:55:28.118Z,20.95
2018-04-17T09:57:56.753Z,21.60
2018-04-17T10:00:25.367Z,20.50
2018-04-17T10:02:54.022Z,18.85
2018-04-17T10:05:22.630Z,15.73
2018-04-17T10:07:51.309Z,16.60
2018-04-17T10:10:19.919Z,15.35
2018-04-17T10:12:48.574Z,14.57
2018-04-17T10:15:17.181Z,13.05
2018-04-17T10:17:45.836Z,16.67
2018-04-17T10:20:15.329Z,17.83
2018-04-17T10:22:43.939Z,17.83
2018-04-17T10:25:12.584Z,16.27
2018-04-17T10:27:41.183Z,17.83
2018-04-17T10:30:09.836Z,16.27
2018-04-17T10:32:38.441Z,15.20
2018-04-17T10:35:07.092Z,17.02
2018-04-17T10:37:35.722Z,16.55
2018-04-17T10:40:04.380Z,14.85
2018-04-17T10:42:33.008Z,15.40
2018-04-17T10:45:01.656Z,16.27
2018-04-17T10:47:30.275Z,16.10
2018-04-17T10:49:58.923Z,17.42
2018-04-17T10:52:27.564Z,18.42
2018-04-17T10:54:56.231Z,15.15
2018-04-17T10:57:24.841Z,17.62
2018-04-17T10:59:53.492Z,16.33
2018-04-17T11:02:22.124Z,15.57
2018-04-17T11:04:50.842Z,15.90
2018-04-17T11:07:19.384Z,17.17
2018-04-17T11:09:48.007Z,15.95
2018-04-17T11:12:16.642Z,16.08
2018-04-17T11:14:45.280Z,15.50
2018-04-17T11:17:13.953Z,14.45
2018-04-17T11:19:42.566Z,17.92
2018-04-17T11:22:11.203Z,17.35
2018-04-17T11:24:39.817Z,16.40
2018-04-17T11:27:08.469Z,15.98
2018-04-17T11:29:37.104Z,16.65
2018-04-17T11:32:05.755Z,14.87
2018-04-17T11:34:34.404Z,16.40
2018-04-17T11:37:03.039Z,15.00
2018-04-17T11:39:31.659Z,15.38
2018-04-17T11:42:00.312Z,17.65
2018-04-17T11:44:28.928Z,15.68
2018-04-17T11:46:57.567Z,12.75
2018-04-17T11:49:26.201Z,13.98
2018-04-17T11:51:54.886Z,16.08
2018-04-17T11:54:23.503Z,13.20
2018-04-17T11:56:52.129Z,14.10
2018-04-17T11:59:20.772Z,12.65
2018-04-17T12:01:51.637Z,13.60
2018-04-17T12:04:20.258Z,14.77
2018-04-17T12:06:48.875Z,13.48
2018-04-17T12:09:17.521Z,17.65
2018-04-17T12:11:46.139Z,13.75
2018-04-17T12:14:14.788Z,15.70
2018-04-17T12:16:43.427Z,16.65
2018-04-17T12:19:12.068Z,16.92
2018-04-17T12:21:40.695Z,17.92
2018-04-17T12:24:09.340Z,16.77
2018-04-17T12:26:37.959Z,21.27
2018-04-17T12:29:06.601Z,14.23
2018-04-17T12:31:35.227Z,18.67
2018-04-17T12:34:03.911Z,15.20
2018-04-17T12:36:32.487Z,18.70
2018-04-17T12:39:01.131Z,16.55
2018-04-17T12:41:29.763Z,15.45
2018-04-17T12:43:58.419Z,15.40
2018-04-17T12:46:27.043Z,14.87
2018-04-17T12:48:55.699Z,16.33
2018-04-17T12:51:24.317Z,14.68
2018-04-17T12:53:52.969Z,15.02
2018-04-17T12:56:21.604Z,16.50
2018-04-17T12:58:50.243Z,17.65
2018-04-17T13:01:18.892Z,16.85
2018-04-17T13:03:47.517Z,17.25
2018-04-17T13:06:16.160Z,17.05
2018-04-17T13:08:44.838Z,18.83
2018-04-17T13:11:13.472Z,16.87
2018-04-17T13:13:42.106Z,16.90
2018-04-17T13:16:10.765Z,17.42
2018-04-17T13:18:39.424Z,17.33
2018-04-17T13:21:08.084Z,18.20
2018-04-17T13:23:36.698Z,16.80
2018-04-17T13:26:05.363Z,21.08
2018-04-17T13:28:33.967Z,18.87
2018-04-17T13:31:02.632Z,18.67
2018-04-17T13:33:31.239Z,19.25
2018-04-17T13:35:59.911Z,17.83
2018-04-17T13:38:28.526Z,19.05
2018-04-17T13:40:57.131Z,18.33
2018-04-17T13:43:25.793Z,19.67
2018-04-17T13:45:54.408Z,18.87
2018-04-17T13:48:23.059Z,19.95
2018-04-17T13:50:52.591Z,17.87
2018-04-17T13:53:21.223Z,21.20
2018-04-17T13:55:49.861Z,20.23
2018-04-17T13:58:18.525Z,17.75
2018-04-17T14:00:47.169Z,17.58
2018-04-17T14:03:16.493Z,18.60
2018-04-17T14:05:45.060Z,20.35
2018-04-17T14:08:17.016Z,23.33
2018-04-17T14:10:45.618Z,20.02
2018-04-17T14:13:14.271Z,20.23
2018-04-17T14:15:43.507Z,19.48
2018-04-17T14:18:12.079Z,21.55
2018-04-17T14:20:40.741Z,21.00
2018-04-17T14:23:09.398Z,18.65
2018-04-17T14:25:38.367Z,19.12
2018-04-17T14:28:07.245Z,21.67
2018-04-17T14:30:36.743Z,21.23
2018-04-17T14:33:05.686Z,18.73
2018-04-17T14:35:34.887Z,16.25
2018-04-17T14:38:03.509Z,15.30
2018-04-17T14:40:33.828Z,18.12
2018-04-17T14:43:03.225Z,17.70
2018-04-17T14:45:36.340Z,18.80
2018-04-17T14:48:11.821Z,17.58
2018-04-17T14:50:41.299Z,15.60
2018-04-17T14:53:09.966Z,16.83
2018-04-17T14:55:39.255Z,16.95
2018-04-17T14:58:13.755Z,18.02
2018-04-17T15:00:44.619Z,18.48
2018-04-17T15:03:15.375Z,18.12
2018-04-17T15:05:50.027Z,19.42
2018-04-17T15:08:26.260Z,20.27
2018-04-17T15:10:57.668Z,19.12
2018-04-17T15:13:30.751Z,18.62
2018-04-17T15:16:00.844Z,20.08
2018-04-17T15:18:29.816Z,19.58
2018-04-17T15:21:00.201Z,20.10
2018-04-17T15:26:16.558Z,20.65
2018-04-17T15:28:45.798Z,19.60
2018-04-17T15:31:14.725Z,19.17
2018-04-17T15:36:36.877Z,24.58
2018-04-17T15:39:08.227Z,22.98
2018-04-17T15:41:40.885Z,25.63
2018-04-17T15:44:10.121Z,23.10
2018-04-17T15:49:36.555Z,23.12
2018-04-17T15:52:12.602Z,23.92
2018-04-17T15:54:48.335Z,24.20
2018-04-17T15:57:16.962Z,23.90
2018-04-17T15:59:45.758Z,23.17
2018-04-17T16:02:14.374Z,24.08
2018-04-17T16:04:43.016Z,22.87
2018-04-17T16:07:11.611Z,21.00
2018-04-17T16:09:45.168Z,21.15
2018-04-17T16:12:14.494Z,21.73
2018-04-17T16:14:43.571Z,23.27
2018-04-17T16:17:12.056Z,23.73
2018-04-17T16:19:41.107Z,22.00
2018-04-17T16:22:09.799Z,24.05
2018-04-17T16:24:38.690Z,23.27
2018-04-17T16:27:09.679Z,23.40
2018-04-17T16:29:39.916Z,21.77
2018-04-17T16:32:08.761Z,23.55
2018-04-17T16:34:37.587Z,23.87
2018-04-17T16:37:06.397Z,24.90
2018-04-17T16:39:39.606Z,24.65
2018-04-17T16:42:08.670Z,26.60
2018-04-17T16:44:37.231Z,27.40
2018-04-17T16:47:06.292Z,26.35
2018-04-17T16:49:34.971Z,26.50
2018-04-17T16:52:04.081Z,26.67
2018-04-17T16:54:33.826Z,28.25
2018-04-17T16:57:02.996Z,28.67
2018-04-17T16:59:33.119Z,28.42
2018-04-17T17:02:14.036Z,28.87
2018-04-17T17:04:42.904Z,32.05
2018-04-17T17:07:11.641Z,30.52
2018-04-17T17:09:40.620Z,30.80
2018-04-17T17:12:09.234Z,30.08
2018-04-17T17:14:37.840Z,30.60
2018-04-17T17:17:08.576Z,30.25
2018-04-17T17:19:37.184Z,32.45
2018-04-17T17:22:05.826Z,31.17
2018-04-17T17:24:34.430Z,32.38
2018-04-17T17:27:03.123Z,40.25
2018-04-17T17:29:31.672Z,35.53
2018-04-17T17:32:00.965Z,36.97
2018-04-17T17:34:30.945Z,39.53
2018-04-17T17:37:00.206Z,42.20
2018-04-17T17:39:29.535Z,39.83
2018-04-17T17:41:58.529Z,39.03
2018-04-17T17:44:28.741Z,37.90
2018-04-17T17:46:59.045Z,40.80
2018-04-17T17:49:27.842Z,39.40
2018-04-17T17:51:56.703Z,39.03
2018-04-17T17:54:31.549Z,38.40
2018-04-17T17:57:03.643Z,36.97
2018-04-17T17:59:43.018Z,32.70
2018-04-17T18:02:11.954Z,40.10
2018-04-17T18:04:42.121Z,36.90
2018-04-17T18:07:10.985Z,44.55
2018-04-17T18:09:43.709Z,44.25
2018-04-17T18:12:29.733Z,48.65
2018-04-17T18:17:47.377Z,38.03
2018-04-17T18:20:24.029Z,38.85
2018-04-17T18:22:52.916Z,42.37
2018-04-17T18:25:21.904Z,37.10
2018-04-17T18:27:51.930Z,41.83
2018-04-17T18:30:22.357Z,40.93
2018-04-17T18:32:51.271Z,41.17
2018-04-17T18:35:21.105Z,34.90
2018-04-17T18:37:51.328Z,39.10
2018-04-17T18:40:21.650Z,42.73
2018-04-17T18:42:50.556Z,45.97
2018-04-17T18:45:20.405Z,47.75
2018-04-17T18:47:50.306Z,41.60
2018-04-17T18:50:19.206Z,46.97
2018-04-17T18:52:48.048Z,44.40
2018-04-17T18:55:16.969Z,47.70
2018-04-17T18:57:51.022Z,38.17
2018-04-17T19:00:20.876Z,43.77
2018-04-17T19:02:50.932Z,46.53
2018-04-17T19:05:20.293Z,45.03
2018-04-17T19:07:50.478Z,46.77
2018-04-17T19:10:20.595Z,40.73
2018-04-17T19:12:49.564Z,40.40
2018-04-17T19:15:20.867Z,42.80
2018-04-17T19:17:49.802Z,44.50
2018-04-17T19:20:18.654Z,44.40
2018-04-17T19:22:47.528Z,45.17
2018-04-17T19:25:16.365Z,45.63
2018-04-17T19:27:45.289Z,37.73
2018-04-17T19:30:14.161Z,38.20
2018-04-17T19:32:43.723Z,40.93
2018-04-17T19:35:17.197Z,43.43
2018-04-17T19:37:46.121Z,37.13
2018-04-17T19:40:15.330Z,38.93
2018-04-17T19:42:44.656Z,37.70
2018-04-17T19:45:13.904Z,39.57
2018-04-17T19:47:43.283Z,45.20
2018-04-17T19:50:12.214Z,42.63
2018-04-17T19:52:40.916Z,39.67
2018-04-17T19:55:10.022Z,42.17
2018-04-17T19:57:38.975Z,44.13
2018-04-17T20:00:07.812Z,40.50
2018-04-17T20:02:37.120Z,44.47
2018-04-17T20:05:08.729Z,46.10
2018-04-17T20:07:37.603Z,40.60
2018-04-17T20:10:10.272Z,55.53
2018-04-17T20:12:39.219Z,47.03
2018-04-17T20:15:10.383Z,47.37
2018-04-17T20:17:44.910Z,44.03
2018-04-17T20:20:16.462Z,45.67
2018-04-17T20:22:46.481Z,41.03
2018-04-17T20:25:18.203Z,43.30
2018-04-17T20:27:47.096Z,47.13
2018-04-17T20:30:16.064Z,44.77
2018-04-17T20:32:47.243Z,49.77
2018-04-17T20:35:16.198Z,62.90
2018-04-17T20:37:47.654Z,56.53
2018-04-17T20:40:18.139Z,63.38
2018-04-17T20:42:47.104Z,66.12
2018-04-17T20:45:19.043Z,53.17
2018-04-17T20:47:48.001Z,59.90
2018-04-17T20:50:34.599Z,65.50
2018-04-17T20:53:03.642Z,61.93
2018-04-17T20:55:32.773Z,60.77
2018-04-17T20:58:01.540Z,53.43
2018-04-17T21:00:39.599Z,45.93
2018-04-17T21:03:08.765Z,40.93
2018-04-17T21:05:39.119Z,58.00
2018-04-17T21:08:09.517Z,40.33
2018-04-17T21:10:41.186Z,41.57
2018-04-17T21:13:13.114Z,47.33
2018-04-17T21:15:42.059Z,51.22
2018-04-17T21:20:50.319Z,40.77
2018-04-17T21:23:18.935Z,49.77
2018-04-17T21:25:47.592Z,57.93
2018-04-17T21:28:16.727Z,53.40
2018-04-17T21:30:45.333Z,61.13
2018-04-17T21:33:13.964Z,54.17
2018-04-17T21:35:42.567Z,45.57
2018-04-17T21:38:11.215Z,73.65
2018-04-17T21:40:39.832Z,58.40
2018-04-17T21:43:08.466Z,59.60
2018-04-17T21:45:37.072Z,57.93
2018-04-17T21:48:05.713Z,62.13
2018-04-17T21:50:34.341Z,76.78
2018-04-17T21:53:02.985Z,65.23
2018-04-17T21:55:31.592Z,74.37
2018-04-17T21:58:00.231Z,57.67
2018-04-17T22:00:28.840Z,56.07
2018-04-17T22:02:57.481Z,60.77
2018-04-17T22:05:26.094Z,67.30
2018-04-17T22:07:54.740Z,63.13
2018-04-17T22:10:23.355Z,65.80
2018-04-17T22:12:51.971Z,61.73
2018-04-17T22:15:20.611Z,66.67
2018-04-17T22:17:49.216Z,63.60
2018-04-17T22:20:17.865Z,61.20
2018-04-17T22:22:46.460Z,63.63
2018-04-17T22:25:15.104Z,70.93
2018-04-17T22:27:43.710Z,56.40
2018-04-17T22:30:12.348Z,60.87
2018-04-17T22:32:40.961Z,75.07
2018-04-17T22:35:09.615Z,64.67
2018-04-17T22:37:38.219Z,61.67
2018-04-17T22:40:06.855Z,59.97
2018-04-17T22:42:35.468Z,58.17
2018-04-17T22:45:04.107Z,56.33
2018-04-17T22:47:32.705Z,61.97
2018-04-17T22:50:01.374Z,72.75
2018-04-17T22:52:29.974Z,80.87
2018-04-17T22:54:58.617Z,67.03
2018-04-17T22:57:27.223Z,67.07
2018-04-17T22:59:55.859Z,49.13
2018-04-17T23:02:24.493Z,52.97
2018-04-17T23:04:53.097Z,64.70
2018-04-17T23:07:21.736Z,65.68
2018-04-17T23:09:50.349Z,67.00
2018-04-17T23:12:18.999Z,66.43
2018-04-17T23:14:47.616Z,66.70
2018-04-17T23:17:16.251Z,53.57
2018-04-17T23:19:44.856Z,54.80
2018-04-17T23:22:16.403Z,41.60
2018-04-17T23:24:45.011Z,45.73
2018-04-17T23:27:13.659Z,54.00
2018-04-17T23:29:42.259Z,51.37
2018-04-17T23:32:10.895Z,40.93
2018-04-17T23:34:39.498Z,60.70
2018-04-17T23:37:08.135Z,56.93
2018-04-17T23:39:36.747Z,55.47
2018-04-17T23:42:05.538Z,41.33
2018-04-17T23:44:34.148Z,54.73
2018-04-17T23:47:02.792Z,54.97
2018-04-17T23:49:31.399Z,58.10
2018-04-17T23:52:00.986Z,43.20
2018-04-17T23:54:29.591Z,58.27
2018-04-17T23:56:58.195Z,61.37
2018-04-17T23:59:31.038Z,56.63
